sensor_id;sensor_type;location;lat;lon;timestamp;temperature;humidity
8114;DHT22;4099;52.684;9.918;2023-04-24T00:01:15;11.60;99.90
8114;DHT22;4099;52.684;9.918;2023-04-24T00:06:17;11.50;99.90
8114;DHT22;4099;52.684;9.918;2023-04-24T00:11:20;11.40;99.90
8114;DHT22;4099;52.684;9.918;2023-04-24T00:16:22;11.40;99.90
8114;DHT22;4099;52.684;9.918;2023-04-24T00:21:24;11.40;99.90
8114;DHT22;4099;52.684;9.918;2023-04-24T00:26:28;11.40;99.90
8114;DHT22;4099;52.684;9.918;2023-04-24T00:31:30;11.30;99.90
8114;DHT22;4099;52.684;9.918;2023-04-24T00:36:32;11.10;99.90
8114;DHT22;4099;52.684;9.918;2023-04-24T00:41:36;11.10;99.90
8114;DHT22;4099;52.684;9.918;2023-04-24T00:46:38;11.00;99.90
8114;DHT22;4099;52.684;9.918;2023-04-24T00:51:40;11.00;99.90
8114;DHT22;4099;52.684;9.918;2023-04-24T00:56:48;10.90;99.90
8114;DHT22;4099;52.684;9.918;2023-04-24T01:01:51;10.60;99.90
8114;DHT22;4099;52.684;9.918;2023-04-24T01:06:54;10.50;99.90
8114;DHT22;4099;52.684;9.918;2023-04-24T01:11:58;10.50;99.90
8114;DHT22;4099;52.684;9.918;2023-04-24T01:17:02;10.50;99.90
8114;DHT22;4099;52.684;9.918;2023-04-24T01:22:10;10.30;99.90
8114;DHT22;4099;52.684;9.918;2023-04-24T01:27:13;10.20;99.90
8114;DHT22;4099;52.684;9.918;2023-04-24T01:32:14;10.20;99.90
8114;DHT22;4099;52.684;9.918;2023-04-24T01:37:18;10.10;99.90
8114;DHT22;4099;52.684;9.918;2023-04-24T01:42:20;10.00;99.90
8114;DHT22;4099;52.684;9.918;2023-04-24T01:47:21;10.20;99.90
8114;DHT22;4099;52.684;9.918;2023-04-24T01:52:26;10.40;99.90
8114;DHT22;4099;52.684;9.918;2023-04-24T01:57:29;10.50;99.90
8114;DHT22;4099;52.684;9.918;2023-04-24T02:02:32;10.60;99.90
8114;DHT22;4099;52.684;9.918;2023-04-24T02:07:35;10.60;99.90
8114;DHT22;4099;52.684;9.918;2023-04-24T02:12:37;10.70;99.90
8114;DHT22;4099;52.684;9.918;2023-04-24T02:17:39;10.70;99.90
8114;DHT22;4099;52.684;9.918;2023-04-24T02:22:42;10.60;99.90
8114;DHT22;4099;52.684;9.918;2023-04-24T02:27:44;10.30;99.90
8114;DHT22;4099;52.684;9.918;2023-04-24T02:32:46;10.20;99.90
8114;DHT22;4099;52.684;9.918;2023-04-24T02:37:49;10.20;99.90
8114;DHT22;4099;52.684;9.918;2023-04-24T02:42:51;10.10;99.90
8114;DHT22;4099;52.684;9.918;2023-04-24T02:47:52;9.90;99.90
8114;DHT22;4099;52.684;9.918;2023-04-24T02:52:56;9.80;99.90
8114;DHT22;4099;52.684;9.918;2023-04-24T02:57:57;9.70;99.90
8114;DHT22;4099;52.684;9.918;2023-04-24T03:02:59;9.60;99.90
8114;DHT22;4099;52.684;9.918;2023-04-24T03:08:02;9.50;99.90
8114;DHT22;4099;52.684;9.918;2023-04-24T03:13:04;9.60;99.90
8114;DHT22;4099;52.684;9.918;2023-04-24T03:18:08;9.70;99.90
8114;DHT22;4099;52.684;9.918;2023-04-24T03:23:12;9.50;99.90
8114;DHT22;4099;52.684;9.918;2023-04-24T03:28:14;9.10;99.90
8114;DHT22;4099;52.684;9.918;2023-04-24T03:33:19;9.00;99.90
8114;DHT22;4099;52.684;9.918;2023-04-24T03:38:33;9.10;99.90
8114;DHT22;4099;52.684;9.918;2023-04-24T03:43:57;9.10;99.90
8114;DHT22;4099;52.684;9.918;2023-04-24T03:49:00;9.20;99.90
8114;DHT22;4099;52.684;9.918;2023-04-24T03:54:07;9.20;99.90
8114;DHT22;4099;52.684;9.918;2023-04-24T03:59:13;9.40;99.90
8114;DHT22;4099;52.684;9.918;2023-04-24T04:04:18;9.50;99.90
8114;DHT22;4099;52.684;9.918;2023-04-24T04:09:21;9.60;99.90
8114;DHT22;4099;52.684;9.918;2023-04-24T04:14:23;9.50;99.90
8114;DHT22;4099;52.684;9.918;2023-04-24T04:19:25;9.60;99.90
8114;DHT22;4099;52.684;9.918;2023-04-24T04:24:29;9.40;99.90
8114;DHT22;4099;52.684;9.918;2023-04-24T04:29:33;9.40;99.90
8114;DHT22;4099;52.684;9.918;2023-04-24T04:34:38;9.30;99.90
8114;DHT22;4099;52.684;9.918;2023-04-24T04:39:43;9.40;99.90
8114;DHT22;4099;52.684;9.918;2023-04-24T04:44:51;9.50;99.90
8114;DHT22;4099;52.684;9.918;2023-04-24T04:49:58;9.50;99.90
8114;DHT22;4099;52.684;9.918;2023-04-24T04:55:04;9.50;99.90
8114;DHT22;4099;52.684;9.918;2023-04-24T05:00:26;9.50;99.90
8114;DHT22;4099;52.684;9.918;2023-04-24T05:05:29;9.50;99.90
8114;DHT22;4099;52.684;9.918;2023-04-24T05:10:33;9.50;99.90
8114;DHT22;4099;52.684;9.918;2023-04-24T05:15:35;9.50;99.90
8114;DHT22;4099;52.684;9.918;2023-04-24T05:20:37;9.70;99.90
8114;DHT22;4099;52.684;9.918;2023-04-24T05:25:41;9.80;99.90
8114;DHT22;4099;52.684;9.918;2023-04-24T05:30:46;10.20;99.90
8114;DHT22;4099;52.684;9.918;2023-04-24T05:35:49;10.60;99.90
8114;DHT22;4099;52.684;9.918;2023-04-24T05:40:53;11.00;99.90
8114;DHT22;4099;52.684;9.918;2023-04-24T05:45:55;11.10;99.90
8114;DHT22;4099;52.684;9.918;2023-04-24T05:50:57;11.20;99.90
8114;DHT22;4099;52.684;9.918;2023-04-24T05:56:01;11.30;99.90
8114;DHT22;4099;52.684;9.918;2023-04-24T06:01:03;11.40;99.90
8114;DHT22;4099;52.684;9.918;2023-04-24T06:06:06;11.70;99.90
8114;DHT22;4099;52.684;9.918;2023-04-24T06:11:10;11.90;99.90
8114;DHT22;4099;52.684;9.918;2023-04-24T06:16:13;12.10;99.90
8114;DHT22;4099;52.684;9.918;2023-04-24T06:21:19;12.50;99.90
8114;DHT22;4099;52.684;9.918;2023-04-24T06:26:22;12.70;99.90
8114;DHT22;4099;52.684;9.918;2023-04-24T06:31:25;12.80;99.90
8114;DHT22;4099;52.684;9.918;2023-04-24T06:36:28;12.90;99.90
8114;DHT22;4099;52.684;9.918;2023-04-24T06:41:32;13.10;99.90
8114;DHT22;4099;52.684;9.918;2023-04-24T06:46:34;13.20;99.90
8114;DHT22;4099;52.684;9.918;2023-04-24T06:51:36;12.80;99.90
8114;DHT22;4099;52.684;9.918;2023-04-24T06:56:39;12.70;99.90
8114;DHT22;4099;52.684;9.918;2023-04-24T07:01:41;12.80;99.90
8114;DHT22;4099;52.684;9.918;2023-04-24T07:06:43;12.50;99.90
8114;DHT22;4099;52.684;9.918;2023-04-24T07:11:46;12.40;99.90
8114;DHT22;4099;52.684;9.918;2023-04-24T07:16:48;12.30;99.90
8114;DHT22;4099;52.684;9.918;2023-04-24T07:21:50;12.10;99.90
8114;DHT22;4099;52.684;9.918;2023-04-24T07:26:55;12.20;99.90
8114;DHT22;4099;52.684;9.918;2023-04-24T07:31:57;12.30;99.90
8114;DHT22;4099;52.684;9.918;2023-04-24T07:36:59;12.40;99.90
8114;DHT22;4099;52.684;9.918;2023-04-24T07:42:02;12.30;99.90
8114;DHT22;4099;52.684;9.918;2023-04-24T07:47:04;12.50;99.90
8114;DHT22;4099;52.684;9.918;2023-04-24T07:52:06;12.60;99.90
8114;DHT22;4099;52.684;9.918;2023-04-24T07:57:09;12.80;99.90
8114;DHT22;4099;52.684;9.918;2023-04-24T08:02:12;12.80;99.90
8114;DHT22;4099;52.684;9.918;2023-04-24T08:07:13;12.90;99.90
8114;DHT22;4099;52.684;9.918;2023-04-24T08:12:16;13.20;99.90
8114;DHT22;4099;52.684;9.918;2023-04-24T08:17:18;13.30;99.90
8114;DHT22;4099;52.684;9.918;2023-04-24T08:22:20;13.00;99.90
8114;DHT22;4099;52.684;9.918;2023-04-24T08:27:24;12.70;99.90
8114;DHT22;4099;52.684;9.918;2023-04-24T08:32:27;12.70;99.90
8114;DHT22;4099;52.684;9.918;2023-04-24T08:37:29;12.50;99.90
8114;DHT22;4099;52.684;9.918;2023-04-24T08:42:33;12.50;99.90
8114;DHT22;4099;52.684;9.918;2023-04-24T08:47:37;12.60;99.90
8114;DHT22;4099;52.684;9.918;2023-04-24T08:52:39;12.50;99.90
8114;DHT22;4099;52.684;9.918;2023-04-24T08:57:44;12.40;99.90
8114;DHT22;4099;52.684;9.918;2023-04-24T09:02:48;12.30;99.90
8114;DHT22;4099;52.684;9.918;2023-04-24T09:07:54;12.60;99.90
8114;DHT22;4099;52.684;9.918;2023-04-24T09:12:59;13.80;99.90
8114;DHT22;4099;52.684;9.918;2023-04-24T09:18:04;14.10;99.90
8114;DHT22;4099;52.684;9.918;2023-04-24T09:23:07;14.10;99.90
8114;DHT22;4099;52.684;9.918;2023-04-24T09:28:12;13.40;99.90
8114;DHT22;4099;52.684;9.918;2023-04-24T09:33:17;13.10;99.90
8114;DHT22;4099;52.684;9.918;2023-04-24T09:38:22;12.80;99.90
8114;DHT22;4099;52.684;9.918;2023-04-24T09:43:34;12.90;99.90
8114;DHT22;4099;52.684;9.918;2023-04-24T09:48:37;13.00;99.90
8114;DHT22;4099;52.684;9.918;2023-04-24T09:53:39;13.70;99.90
8114;DHT22;4099;52.684;9.918;2023-04-24T09:58:47;14.30;99.90
8114;DHT22;4099;52.684;9.918;2023-04-24T10:03:49;15.20;99.70
8114;DHT22;4099;52.684;9.918;2023-04-24T10:08:51;14.80;98.20
8114;DHT22;4099;52.684;9.918;2023-04-24T10:13:54;14.10;97.70
8114;DHT22;4099;52.684;9.918;2023-04-24T10:18:59;13.80;98.10
8114;DHT22;4099;52.684;9.918;2023-04-24T10:24:01;13.60;99.20
8114;DHT22;4099;52.684;9.918;2023-04-24T10:29:06;13.60;99.90
8114;DHT22;4099;52.684;9.918;2023-04-24T10:34:10;13.50;99.90
8114;DHT22;4099;52.684;9.918;2023-04-24T10:39:15;13.40;99.90
8114;DHT22;4099;52.684;9.918;2023-04-24T10:44:37;13.00;99.90
8114;DHT22;4099;52.684;9.918;2023-04-24T10:49:58;12.70;99.90
8114;DHT22;4099;52.684;9.918;2023-04-24T10:55:16;12.70;99.90
8114;DHT22;4099;52.684;9.918;2023-04-24T11:01:07;12.80;99.90
8114;DHT22;4099;52.684;9.918;2023-04-24T11:06:29;13.30;99.90
8114;DHT22;4099;52.684;9.918;2023-04-24T11:11:45;13.80;99.90
8114;DHT22;4099;52.684;9.918;2023-04-24T11:17:26;13.50;99.90
8114;DHT22;4099;52.684;9.918;2023-04-24T11:22:45;13.20;99.90
8114;DHT22;4099;52.684;9.918;2023-04-24T11:28:04;13.10;99.90
8114;DHT22;4099;52.684;9.918;2023-04-24T11:44:35;13.30;99.60
8114;DHT22;4099;52.684;9.918;2023-04-24T11:49:53;13.50;99.30
8114;DHT22;4099;52.684;9.918;2023-04-24T11:55:27;13.30;99.10
8114;DHT22;4099;52.684;9.918;2023-04-24T12:01:02;13.00;99.50
8114;DHT22;4099;52.684;9.918;2023-04-24T12:06:19;12.60;99.90
8114;DHT22;4099;52.684;9.918;2023-04-24T12:11:36;12.60;99.90
8114;DHT22;4099;52.684;9.918;2023-04-24T12:16:57;12.70;99.90
8114;DHT22;4099;52.684;9.918;2023-04-24T12:22:16;12.70;99.90
8114;DHT22;4099;52.684;9.918;2023-04-24T12:27:34;12.40;99.90
8114;DHT22;4099;52.684;9.918;2023-04-24T12:32:53;12.30;99.90
8114;DHT22;4099;52.684;9.918;2023-04-24T12:38:10;12.10;99.90
8114;DHT22;4099;52.684;9.918;2023-04-24T12:43:29;12.10;99.90
8114;DHT22;4099;52.684;9.918;2023-04-24T12:49:02;12.40;99.90
8114;DHT22;4099;52.684;9.918;2023-04-24T12:54:18;13.00;99.90
8114;DHT22;4099;52.684;9.918;2023-04-24T12:59:37;13.10;99.90
8114;DHT22;4099;52.684;9.918;2023-04-24T13:04:55;12.70;99.90
8114;DHT22;4099;52.684;9.918;2023-04-24T13:10:13;12.60;99.90
8114;DHT22;4099;52.684;9.918;2023-04-24T13:15:29;12.00;99.90
8114;DHT22;4099;52.684;9.918;2023-04-24T13:20:38;11.80;99.90
8114;DHT22;4099;52.684;9.918;2023-04-24T13:25:55;11.80;99.90
8114;DHT22;4099;52.684;9.918;2023-04-24T13:31:12;11.60;99.90
8114;DHT22;4099;52.684;9.918;2023-04-24T13:42:27;11.10;99.90
8114;DHT22;4099;52.684;9.918;2023-04-24T13:47:33;11.10;99.90
8114;DHT22;4099;52.684;9.918;2023-04-24T13:52:46;10.90;99.90
8114;DHT22;4099;52.684;9.918;2023-04-24T14:09:47;10.20;99.90
8114;DHT22;4099;52.684;9.918;2023-04-24T14:15:04;9.80;99.90
8114;DHT22;4099;52.684;9.918;2023-04-24T14:20:23;9.70;99.90
8114;DHT22;4099;52.684;9.918;2023-04-24T14:31:34;9.30;99.90
8114;DHT22;4099;52.684;9.918;2023-04-24T14:36:52;9.10;99.90
8114;DHT22;4099;52.684;9.918;2023-04-24T14:42:13;8.80;99.90
8114;DHT22;4099;52.684;9.918;2023-04-24T14:47:47;8.60;99.90
8114;DHT22;4099;52.684;9.918;2023-04-24T14:53:03;8.60;99.90
8114;DHT22;4099;52.684;9.918;2023-04-24T14:58:13;8.70;99.90
8114;DHT22;4099;52.684;9.918;2023-04-24T15:03:35;8.80;99.90
8114;DHT22;4099;52.684;9.918;2023-04-24T15:08:52;8.70;99.90
8114;DHT22;4099;52.684;9.918;2023-04-24T15:14:09;8.50;99.90
8114;DHT22;4099;52.684;9.918;2023-04-24T15:19:34;8.30;99.90
8114;DHT22;4099;52.684;9.918;2023-04-24T15:24:51;8.20;99.90
8114;DHT22;4099;52.684;9.918;2023-04-24T15:30:08;8.10;99.90
8114;DHT22;4099;52.684;9.918;2023-04-24T15:52:52;7.90;99.90
8114;DHT22;4099;52.684;9.918;2023-04-24T15:57:57;7.80;99.90
8114;DHT22;4099;52.684;9.918;2023-04-24T16:03:13;7.90;99.90
8114;DHT22;4099;52.684;9.918;2023-04-24T16:20:10;8.10;99.90
8114;DHT22;4099;52.684;9.918;2023-04-24T16:25:15;8.10;99.90
8114;DHT22;4099;52.684;9.918;2023-04-24T16:30:31;8.10;99.90
8114;DHT22;4099;52.684;9.918;2023-04-24T17:04:52;8.30;99.90
8114;DHT22;4099;52.684;9.918;2023-04-24T17:10:10;8.20;99.90
8114;DHT22;4099;52.684;9.918;2023-04-24T17:15:20;8.10;99.90
8114;DHT22;4099;52.684;9.918;2023-04-24T17:20:55;8.10;99.90
8114;DHT22;4099;52.684;9.918;2023-04-24T17:26:13;8.20;99.90
8114;DHT22;4099;52.684;9.918;2023-04-24T17:31:22;8.10;99.90
8114;DHT22;4099;52.684;9.918;2023-04-24T17:36:40;8.10;99.90
8114;DHT22;4099;52.684;9.918;2023-04-24T17:41:42;8.00;99.90
8114;DHT22;4099;52.684;9.918;2023-04-24T17:46:58;8.00;99.90
8114;DHT22;4099;52.684;9.918;2023-04-24T17:57:54;7.90;99.90
8114;DHT22;4099;52.684;9.918;2023-04-24T18:03:10;7.90;99.90
8114;DHT22;4099;52.684;9.918;2023-04-24T18:08:26;7.90;99.90
8114;DHT22;4099;52.684;9.918;2023-04-24T18:19:05;7.80;99.90
8114;DHT22;4099;52.684;9.918;2023-04-24T18:24:21;7.90;99.90
8114;DHT22;4099;52.684;9.918;2023-04-24T18:29:29;7.80;99.90
8114;DHT22;4099;52.684;9.918;2023-04-24T18:34:45;7.70;99.90
8114;DHT22;4099;52.684;9.918;2023-04-24T18:40:02;7.70;99.90
8114;DHT22;4099;52.684;9.918;2023-04-24T18:45:19;7.60;99.90
8114;DHT22;4099;52.684;9.918;2023-04-24T18:50:58;7.60;99.90
8114;DHT22;4099;52.684;9.918;2023-04-24T18:56:17;7.40;99.90
8114;DHT22;4099;52.684;9.918;2023-04-24T19:01:23;7.40;99.90
8114;DHT22;4099;52.684;9.918;2023-04-24T19:18:20;7.40;99.90
8114;DHT22;4099;52.684;9.918;2023-04-24T19:23:39;7.30;99.90
8114;DHT22;4099;52.684;9.918;2023-04-24T19:28:58;7.20;99.90
8114;DHT22;4099;52.684;9.918;2023-04-24T19:34:46;7.20;99.90
8114;DHT22;4099;52.684;9.918;2023-04-24T19:40:06;7.20;99.90
8114;DHT22;4099;52.684;9.918;2023-04-24T19:45:23;7.20;99.90
8114;DHT22;4099;52.684;9.918;2023-04-24T20:02:19;7.30;99.90
8114;DHT22;4099;52.684;9.918;2023-04-24T20:07:27;7.20;99.90
8114;DHT22;4099;52.684;9.918;2023-04-24T20:12:44;7.10;99.90
8114;DHT22;4099;52.684;9.918;2023-04-24T20:24:18;7.10;99.90
8114;DHT22;4099;52.684;9.918;2023-04-24T20:29:27;7.10;99.90
8114;DHT22;4099;52.684;9.918;2023-04-24T20:34:32;7.10;99.90
8114;DHT22;4099;52.684;9.918;2023-04-24T21:02:48;7.20;99.90
8114;DHT22;4099;52.684;9.918;2023-04-24T21:08:06;7.20;99.90
8114;DHT22;4099;52.684;9.918;2023-04-24T21:13:25;7.20;99.90
8114;DHT22;4099;52.684;9.918;2023-04-24T21:24:51;7.30;99.90
8114;DHT22;4099;52.684;9.918;2023-04-24T21:30:03;7.30;99.90
8114;DHT22;4099;52.684;9.918;2023-04-24T21:35:10;7.40;99.90
8114;DHT22;4099;52.684;9.918;2023-04-24T21:46:23;7.60;99.90
8114;DHT22;4099;52.684;9.918;2023-04-24T21:51:41;7.50;99.90
8114;DHT22;4099;52.684;9.918;2023-04-24T21:57:00;7.50;99.90
8114;DHT22;4099;52.684;9.918;2023-04-24T22:02:22;7.50;99.90
8114;DHT22;4099;52.684;9.918;2023-04-24T22:07:38;7.50;99.90
8114;DHT22;4099;52.684;9.918;2023-04-24T22:12:54;7.60;99.90
8114;DHT22;4099;52.684;9.918;2023-04-24T22:29:44;7.60;99.90
8114;DHT22;4099;52.684;9.918;2023-04-24T22:35:00;7.50;99.90
8114;DHT22;4099;52.684;9.918;2023-04-24T22:40:29;7.50;99.90
8114;DHT22;4099;52.684;9.918;2023-04-24T22:45:49;7.40;99.90
8114;DHT22;4099;52.684;9.918;2023-04-24T22:50:55;7.40;99.90
8114;DHT22;4099;52.684;9.918;2023-04-24T23:07:38;7.30;99.90
8114;DHT22;4099;52.684;9.918;2023-04-24T23:12:47;7.30;99.90
8114;DHT22;4099;52.684;9.918;2023-04-24T23:18:53;7.30;99.90
8114;DHT22;4099;52.684;9.918;2023-04-24T23:23:57;7.20;99.90
8114;DHT22;4099;52.684;9.918;2023-04-24T23:29:14;7.30;99.90
8114;DHT22;4099;52.684;9.918;2023-04-24T23:46:09;7.10;99.90
8114;DHT22;4099;52.684;9.918;2023-04-24T23:51:28;7.10;99.90
8114;DHT22;4099;52.684;9.918;2023-04-24T23:56:46;7.10;99.90
